الصفحة الرئيسية
METAR-TAF:

METAR-TAF

مطار :

Liberia, كوستاريكا

دائرة عرض: 10-37N, خط طول: 085-26W, ارتفاع: 80 متر

مراقبة الطقس الحالي

تاريخ ووقت الإصدار 19 دقيقة قبل الساعة 14:00UTC
ريح 4 عقدة من الجنوب الشرقي
درجة الحرارة 26°درجة مئوية
الرطوبة 84%
ضغط 1012 hPa
الرؤية 10 كم أو أكثر
غيوم متفرقة على ارتفاع 1000 قدم
غيوم مفككة على ارتفاع 12000 قدم

METAR: MRLB 171400Z 14004KT 9999 SCT010 BKN120 26/23 A2989 NOSIG

زمن: 08:19 (14:19 UTC)

توقعات

تاريخ ووقت الإصدار 2ساعات و 19 دقيقة قبل الساعة 12:00UTC
التوقعات صالحة من17 الساعة 12 UTC إلى 18 الساعة 12 UTC
ريح 7 عقدة من الشرق/الجنوب الشرقي
الرؤية 10 كم أو أكثر
غيوم مفككة على ارتفاع 3000 قدم
مطر خفيف
مؤقت
من 17 الساعة 14 UTC إلى 17 الساعة 18 UTC
ريح 2 عقدةمن اتجاهات متغيرة
الرؤية: 1500 متر
غيوم متفرقة على ارتفاع 400 قدم
غيوم مفككة على ارتفاع 3000 قدم
مطر, غشاء
مؤقت
من 17 الساعة 23 UTC إلى 18 الساعة 06 UTC
الرؤية: 5000 متر
غيوم مفككة على ارتفاع 2000 قدم
مطر, غشاء

TAF: MRLB 171200Z 1712/1812 12007KT 9999 -RA BKN030 TX25/1717Z TN22/1812Z TEMPO 1714/1718 VRB02KT 1500 RA BR SCT004 BKN030 TEMPO 1723/1806 5000 RA BR BKN020

أرصاد الطقس والتوقعات من أكثر من 4000 مطار (تقارير الطقس للمطار METAR والتنبؤ بالطقس بالمطارTAF).

المحطات المتاحة هي النقط الصفراء والحمراء على الخريطة.

حرك المؤشر فوق النقطة لمعرفة اسم المحطة.

ثم انقر لمعرفة أرصاد وتوقعات الطقس.

لتغيير الخارطة: اضغط على الأزرار الخضراء مع رمز الصليب الأسود للتكبير. على الزر الأخضر مع شرطة للتصغير، أو على الأسهم الخضراء للخرائط المجاورة.


METAR-TAF: